createdAt,value
2022-11-14T00:00:59.184Z,6.50
2022-11-14T00:03:50.870Z,6.50
2022-11-14T00:06:37.867Z,6.60
2022-11-14T00:09:26.693Z,6.60
2022-11-14T00:12:13.871Z,6.60
2022-11-14T00:15:00.941Z,6.60
2022-11-14T00:17:48.061Z,6.70
2022-11-14T00:20:36.830Z,6.70
2022-11-14T00:23:23.857Z,6.70
2022-11-14T00:26:10.635Z,6.70
2022-11-14T00:28:57.709Z,6.70
2022-11-14T00:31:44.991Z,6.70
2022-11-14T00:34:31.975Z,6.70
2022-11-14T00:37:20.209Z,6.70
2022-11-14T00:40:08.118Z,6.70
2022-11-14T00:42:55.011Z,6.70
2022-11-14T00:45:45.016Z,6.70
2022-11-14T00:48:32.408Z,6.70
2022-11-14T00:51:19.778Z,6.70
2022-11-14T00:54:08.200Z,6.70
2022-11-14T00:56:55.067Z,6.70
2022-11-14T00:59:42.248Z,6.70
2022-11-14T01:02:29.386Z,6.60
2022-11-14T01:05:16.338Z,6.60
2022-11-14T01:08:03.562Z,6.60
2022-11-14T01:10:52.679Z,6.60
2022-11-14T01:13:40.153Z,6.50
2022-11-14T01:16:27.169Z,6.50
2022-11-14T01:19:14.392Z,6.50
2022-11-14T01:22:05.952Z,6.50
2022-11-14T01:24:55.257Z,6.50
2022-11-14T01:27:43.675Z,6.60
2022-11-14T01:30:30.884Z,6.60
2022-11-14T01:33:18.060Z,6.60
2022-11-14T01:36:06.419Z,6.60
2022-11-14T01:38:54.178Z,6.70
2022-11-14T01:41:41.340Z,6.70
2022-11-14T01:44:47.009Z,6.70
2022-11-14T01:47:34.730Z,6.60
2022-11-14T01:50:21.783Z,6.70
2022-11-14T01:53:08.534Z,6.70
2022-11-14T01:55:58.920Z,6.70
2022-11-14T01:58:50.209Z,6.70
2022-11-14T02:01:43.494Z,6.70
2022-11-14T02:04:34.781Z,6.70
2022-11-14T02:07:22.104Z,6.80
2022-11-14T02:10:16.445Z,6.70
2022-11-14T02:13:03.764Z,6.70
2022-11-14T02:15:51.233Z,6.70
2022-11-14T02:18:39.465Z,6.70
2022-11-14T02:21:28.209Z,6.70
2022-11-14T02:24:15.670Z,6.70
2022-11-14T02:27:03.504Z,6.60
2022-11-14T02:29:50.665Z,6.60
2022-11-14T02:33:08.803Z,6.50
2022-11-14T02:35:45.058Z,6.60
2022-11-14T02:38:33.388Z,6.50
2022-11-14T02:41:20.409Z,6.40
2022-11-14T02:44:07.256Z,6.40
2022-11-14T02:46:54.849Z,6.40
2022-11-14T02:49:41.589Z,6.40
2022-11-14T02:52:28.552Z,6.30
2022-11-14T02:55:16.865Z,6.30
2022-11-14T02:58:03.890Z,6.30
2022-11-14T03:01:18.624Z,6.20
2022-11-14T03:03:57.906Z,6.20
2022-11-14T03:06:44.678Z,6.20
2022-11-14T03:09:32.098Z,6.20
2022-11-14T03:12:20.854Z,6.10
2022-11-14T03:15:08.765Z,6.10
2022-11-14T03:17:55.939Z,6.10
2022-11-14T03:20:42.857Z,6.10
2022-11-14T03:23:29.824Z,5.90
2022-11-14T03:26:17.424Z,5.90
2022-11-14T03:29:06.267Z,5.90
2022-11-14T03:31:53.292Z,5.90
2022-11-14T03:34:40.114Z,5.80
2022-11-14T03:37:27.034Z,5.90
2022-11-14T03:40:14.487Z,5.90
2022-11-14T03:43:01.392Z,5.90
2022-11-14T03:45:50.134Z,5.80
2022-11-14T03:48:36.987Z,5.80
2022-11-14T03:51:23.736Z,5.80
2022-11-14T03:54:10.694Z,5.90
2022-11-14T03:56:57.633Z,5.90
2022-11-14T03:59:44.678Z,5.90
2022-11-14T04:02:33.425Z,5.80
2022-11-14T04:05:20.764Z,5.80
2022-11-14T04:08:08.801Z,5.80
2022-11-14T04:10:55.914Z,5.80
2022-11-14T04:13:42.830Z,5.80
2022-11-14T04:16:29.946Z,5.80
2022-11-14T04:19:18.417Z,5.90
2022-11-14T04:22:06.270Z,5.90
2022-11-14T04:24:53.188Z,5.90
2022-11-14T04:27:40.440Z,6.00
2022-11-14T04:30:32.092Z,6.00
2022-11-14T04:33:21.665Z,6.00
2022-11-14T04:36:10.470Z,6.00
2022-11-14T04:38:57.702Z,6.00
2022-11-14T04:41:45.321Z,6.00
2022-11-14T04:44:32.561Z,6.00
2022-11-14T04:47:20.081Z,6.00
2022-11-14T04:50:08.007Z,6.00
2022-11-14T04:52:56.891Z,6.00
2022-11-14T04:55:45.696Z,6.00
2022-11-14T04:58:32.833Z,6.10
2022-11-14T05:01:20.254Z,6.10
2022-11-14T05:04:07.733Z,6.10
2022-11-14T05:06:55.003Z,6.10
2022-11-14T05:09:43.524Z,6.10
2022-11-14T05:12:30.946Z,6.10
2022-11-14T05:15:17.910Z,6.10
2022-11-14T05:18:05.732Z,6.10
2022-11-14T05:20:52.972Z,6.10
2022-11-14T05:23:40.559Z,6.20
2022-11-14T05:26:28.904Z,6.10
2022-11-14T05:29:16.134Z,6.10
2022-11-14T05:32:03.542Z,6.10
2022-11-14T05:34:50.718Z,6.00
2022-11-14T05:37:37.806Z,6.10
2022-11-14T05:40:25.122Z,6.10
2022-11-14T05:43:13.639Z,6.10
2022-11-14T05:46:01.675Z,6.10
2022-11-14T05:48:48.632Z,6.10
2022-11-14T05:51:35.563Z,6.00
2022-11-14T05:54:22.294Z,6.00
2022-11-14T05:57:09.088Z,6.00
2022-11-14T05:59:57.683Z,6.00
2022-11-14T06:02:46.188Z,6.00
2022-11-14T06:05:35.368Z,6.00
2022-11-14T06:08:22.654Z,6.00
2022-11-14T06:11:11.631Z,6.00
2022-11-14T06:13:59.467Z,5.90
2022-11-14T06:16:47.985Z,6.00
2022-11-14T06:19:35.445Z,5.90
2022-11-14T06:22:22.594Z,5.90
2022-11-14T06:25:10.438Z,5.90
2022-11-14T06:27:59.329Z,6.00
2022-11-14T06:30:46.477Z,6.00
2022-11-14T06:33:37.540Z,6.00
2022-11-14T06:36:24.978Z,6.00
2022-11-14T06:39:12.045Z,6.00
2022-11-14T06:41:58.857Z,6.00
2022-11-14T06:44:45.643Z,6.00
2022-11-14T06:47:32.504Z,6.00
2022-11-14T06:50:20.710Z,6.00
2022-11-14T06:53:07.987Z,5.90
2022-11-14T06:55:58.908Z,5.90
2022-11-14T06:58:47.592Z,5.90
2022-11-14T07:01:34.732Z,5.90
2022-11-14T07:04:21.495Z,5.90
2022-11-14T07:07:09.846Z,5.90
2022-11-14T07:09:58.856Z,5.90
2022-11-14T07:12:46.021Z,5.80
2022-11-14T07:15:32.714Z,5.80
2022-11-14T07:18:19.811Z,5.80
2022-11-14T07:21:07.758Z,5.80
2022-11-14T07:23:56.379Z,5.90
2022-11-14T07:26:43.483Z,5.90
2022-11-14T07:29:30.424Z,5.90
2022-11-14T07:32:17.440Z,5.90
2022-11-14T07:35:04.489Z,6.00
2022-11-14T07:37:51.947Z,6.00
2022-11-14T07:40:40.230Z,6.10
2022-11-14T07:43:27.987Z,6.10
2022-11-14T07:46:18.429Z,6.20
2022-11-14T07:49:05.493Z,6.20
2022-11-14T07:51:52.443Z,6.20
2022-11-14T07:54:39.562Z,6.20
2022-11-14T07:57:27.665Z,6.30
2022-11-14T08:00:17.012Z,6.30
2022-11-14T08:03:04.043Z,6.20
2022-11-14T08:05:51.001Z,6.30
2022-11-14T08:08:38.254Z,6.30
2022-11-14T08:11:39.009Z,6.30
2022-11-14T08:14:27.730Z,6.40
2022-11-14T08:17:14.658Z,6.40
2022-11-14T08:20:01.564Z,6.40
2022-11-14T08:22:49.102Z,6.50
2022-11-14T08:25:35.959Z,6.50
2022-11-14T08:28:22.797Z,6.70
2022-11-14T08:31:11.247Z,6.80
2022-11-14T08:33:58.096Z,6.80
2022-11-14T08:36:45.439Z,6.80
2022-11-14T08:39:32.260Z,6.80
2022-11-14T08:42:19.203Z,6.90
2022-11-14T08:45:06.782Z,6.90
2022-11-14T08:47:55.647Z,6.90
2022-11-14T08:50:42.503Z,7.00
2022-11-14T08:53:29.348Z,7.00
2022-11-14T08:56:16.298Z,7.10
2022-11-14T08:59:04.719Z,7.20
2022-11-14T09:01:51.764Z,7.20
2022-11-14T09:04:39.958Z,7.10
2022-11-14T09:07:28.787Z,7.10
2022-11-14T09:10:16.074Z,7.20
2022-11-14T09:13:03.812Z,7.20
2022-11-14T09:15:50.941Z,7.20
2022-11-14T09:18:38.014Z,7.10
2022-11-14T09:21:26.464Z,7.10
2022-11-14T09:24:13.357Z,7.10
2022-11-14T09:27:00.229Z,7.10
2022-11-14T09:29:47.572Z,7.10
2022-11-14T09:32:34.284Z,7.20
2022-11-14T09:35:21.174Z,7.30
2022-11-14T09:38:11.875Z,7.20
2022-11-14T09:41:16.355Z,7.20
2022-11-14T09:44:24.836Z,8.20
2022-11-14T09:47:20.556Z,7.40
2022-11-14T09:50:18.020Z,7.30
2022-11-14T09:53:16.429Z,7.40
2022-11-14T09:56:03.635Z,7.50
2022-11-14T09:58:51.292Z,7.50
2022-11-14T10:01:50.155Z,7.50
2022-11-14T10:04:50.573Z,7.70
2022-11-14T10:07:50.777Z,7.70
2022-11-14T10:10:59.456Z,7.70
2022-11-14T10:14:04.616Z,7.80
2022-11-14T10:17:01.962Z,7.90
2022-11-14T10:20:00.979Z,7.90
2022-11-14T10:23:07.243Z,7.90
2022-11-14T10:26:06.535Z,7.80
2022-11-14T10:29:24.692Z,7.80
2022-11-14T10:32:20.629Z,7.80
2022-11-14T10:35:15.080Z,7.90
2022-11-14T10:38:10.317Z,8.00
2022-11-14T10:41:02.479Z,7.90
2022-11-14T10:43:50.944Z,8.00
2022-11-14T10:46:40.914Z,7.90
2022-11-14T10:49:32.537Z,7.90
2022-11-14T10:52:23.646Z,8.00
2022-11-14T10:55:15.601Z,8.00
2022-11-14T10:58:09.632Z,8.10
2022-11-14T11:00:56.686Z,8.20
2022-11-14T11:03:45.626Z,8.10
2022-11-14T11:06:32.769Z,8.00
2022-11-14T11:09:45.102Z,8.00
2022-11-14T11:12:44.568Z,8.10
2022-11-14T11:15:40.739Z,8.10
2022-11-14T11:18:30.725Z,8.10
2022-11-14T11:21:21.856Z,8.10
2022-11-14T11:24:10.717Z,8.20
2022-11-14T11:27:22.582Z,8.20
2022-11-14T11:30:19.818Z,8.20
2022-11-14T11:33:23.856Z,8.40
2022-11-14T11:36:17.720Z,8.50
2022-11-14T11:39:04.799Z,8.90
2022-11-14T11:42:11.012Z,9.10
2022-11-14T11:45:02.500Z,9.20
2022-11-14T11:47:57.381Z,9.40
2022-11-14T11:50:45.967Z,9.40
2022-11-14T11:53:38.281Z,9.50
2022-11-14T11:56:28.801Z,9.40
2022-11-14T11:59:28.769Z,9.40
2022-11-14T12:02:23.578Z,9.30
2022-11-14T12:05:16.505Z,9.20
2022-11-14T12:08:09.675Z,9.10
2022-11-14T12:10:58.178Z,9.10
2022-11-14T12:14:09.121Z,9.10
2022-11-14T12:17:14.658Z,9.10
2022-11-14T12:20:24.050Z,9.30
2022-11-14T12:23:34.367Z,9.40
2022-11-14T12:26:36.604Z,9.50
2022-11-14T12:29:47.701Z,10.10
2022-11-14T12:32:39.663Z,9.70
2022-11-14T12:35:31.102Z,9.60
2022-11-14T12:38:21.623Z,9.70
2022-11-14T12:41:10.066Z,9.90
2022-11-14T12:44:18.513Z,9.80
2022-11-14T12:47:18.056Z,9.90
2022-11-14T12:50:21.923Z,9.70
2022-11-14T12:53:42.280Z,9.70
2022-11-14T12:57:00.692Z,9.70
2022-11-14T12:59:57.807Z,9.70
2022-11-14T13:03:01.310Z,9.70
2022-11-14T13:05:58.426Z,9.70
2022-11-14T13:09:23.045Z,9.80
2022-11-14T13:12:47.825Z,9.80
2022-11-14T13:15:54.924Z,10.00
2022-11-14T13:19:31.969Z,10.10
2022-11-14T13:22:39.122Z,10.00
2022-11-14T13:25:27.646Z,9.90
2022-11-14T13:28:47.927Z,9.90
2022-11-14T13:31:47.359Z,9.90
2022-11-14T13:34:41.435Z,9.80
2022-11-14T13:37:46.028Z,9.80
2022-11-14T13:40:39.487Z,9.80
2022-11-14T13:43:40.494Z,9.80
2022-11-14T13:46:40.782Z,9.80
2022-11-14T13:49:53.435Z,9.70
2022-11-14T13:52:43.485Z,9.70
2022-11-14T13:55:39.275Z,9.70
2022-11-14T13:58:39.323Z,9.60
2022-11-14T14:01:43.867Z,9.60
2022-11-14T14:04:46.727Z,9.60
2022-11-14T14:07:49.375Z,9.40
2022-11-14T14:10:43.093Z,9.30
2022-11-14T14:13:44.919Z,9.30
2022-11-14T14:16:41.352Z,9.30
2022-11-14T14:19:42.228Z,9.20
2022-11-14T14:22:37.463Z,9.20
2022-11-14T14:25:31.435Z,9.00
2022-11-14T14:28:31.632Z,9.00
2022-11-14T14:31:23.244Z,8.90
2022-11-14T14:34:26.119Z,8.80
2022-11-14T14:37:21.482Z,8.80
2022-11-14T14:40:23.693Z,8.70
2022-11-14T14:43:23.289Z,8.60
2022-11-14T14:46:11.886Z,8.60
2022-11-14T14:49:01.878Z,8.50
2022-11-14T14:51:48.796Z,8.40
2022-11-14T14:54:35.855Z,8.40
2022-11-14T14:57:23.670Z,8.30
2022-11-14T15:00:20.212Z,8.20
2022-11-14T15:03:11.850Z,8.20
2022-11-14T15:06:00.575Z,8.10
2022-11-14T15:08:47.855Z,8.10
2022-11-14T15:11:35.001Z,8.00
2022-11-14T15:14:24.916Z,7.90
2022-11-14T15:17:12.951Z,7.90
2022-11-14T15:20:01.820Z,7.80
2022-11-14T15:23:04.380Z,7.70
2022-11-14T15:26:02.920Z,7.50
2022-11-14T15:28:50.062Z,7.40
2022-11-14T15:31:37.899Z,7.20
2022-11-14T15:34:27.936Z,7.10
2022-11-14T15:37:25.780Z,7.10
2022-11-14T15:40:20.420Z,7.00
2022-11-14T15:43:39.262Z,6.90
2022-11-14T15:46:43.700Z,6.80
2022-11-14T15:49:30.779Z,6.70
2022-11-14T15:52:22.815Z,6.70
2022-11-14T15:55:17.382Z,6.70
2022-11-14T15:58:27.142Z,6.70
2022-11-14T16:01:18.561Z,6.70
2022-11-14T16:04:06.232Z,6.60
2022-11-14T16:06:53.463Z,6.70
2022-11-14T16:09:40.571Z,6.60
2022-11-14T16:12:29.544Z,6.60
2022-11-14T16:15:17.398Z,6.60
2022-11-14T16:18:06.388Z,6.60
2022-11-14T16:20:58.686Z,6.60
2022-11-14T16:23:46.079Z,6.70
2022-11-14T16:26:33.219Z,6.60
2022-11-14T16:29:22.060Z,6.60
2022-11-14T18:50:18.880Z,5.20
2022-11-14T18:53:06.068Z,5.60
2022-11-14T18:55:53.305Z,5.60
2022-11-14T18:58:41.572Z,5.50
2022-11-14T19:01:32.132Z,5.50
2022-11-14T19:04:19.825Z,5.50
2022-11-14T19:07:09.969Z,5.40
2022-11-14T19:09:57.017Z,5.50
2022-11-14T19:12:43.960Z,5.50
2022-11-14T19:15:30.919Z,5.50
2022-11-14T19:18:18.001Z,5.40
2022-11-14T19:21:06.261Z,5.40
2022-11-14T19:23:55.019Z,5.40
2022-11-14T19:26:42.023Z,5.40
2022-11-14T19:29:28.893Z,5.30
2022-11-14T19:32:15.969Z,5.30
2022-11-14T19:35:03.191Z,5.30
2022-11-14T19:37:50.380Z,5.20
2022-11-14T19:40:39.705Z,5.30
2022-11-14T19:43:27.990Z,5.30
2022-11-14T19:46:17.035Z,5.20
2022-11-14T19:49:07.350Z,5.20
2022-11-14T19:51:54.595Z,5.10
2022-11-14T19:54:41.561Z,5.10
2022-11-14T19:57:32.897Z,5.10
2022-11-14T20:00:20.787Z,5.10
2022-11-14T20:03:07.894Z,5.10
2022-11-14T20:05:56.256Z,5.00
2022-11-14T20:08:43.567Z,5.00
2022-11-14T20:11:32.187Z,5.00
2022-11-14T20:14:21.297Z,4.90
2022-11-14T20:17:08.800Z,4.70
2022-11-14T20:19:55.792Z,4.70
2022-11-14T20:22:42.670Z,4.70
2022-11-14T20:25:30.341Z,4.70
2022-11-14T20:28:17.587Z,4.70
2022-11-14T20:31:08.773Z,4.70
2022-11-14T20:33:56.987Z,4.80
2022-11-14T20:37:09.206Z,4.80
2022-11-14T20:39:51.753Z,4.70
2022-11-14T20:42:39.180Z,4.70
2022-11-14T20:45:26.579Z,4.70
2022-11-14T20:48:14.975Z,4.70
2022-11-14T20:51:06.955Z,4.70
2022-11-14T20:53:56.079Z,4.70
2022-11-14T20:56:43.577Z,4.70
2022-11-14T20:59:30.890Z,4.70
2022-11-14T21:02:17.900Z,4.80
2022-11-14T21:05:07.229Z,4.70
2022-11-14T21:07:54.337Z,4.70
2022-11-14T21:10:48.777Z,4.60
2022-11-14T21:13:54.279Z,4.60
2022-11-14T21:16:41.563Z,4.60
2022-11-14T21:19:30.047Z,4.60
2022-11-14T21:22:18.626Z,4.60
2022-11-14T21:25:06.333Z,4.50
2022-11-14T21:27:53.710Z,4.50
2022-11-14T21:30:40.762Z,4.50
2022-11-14T21:33:29.912Z,4.40
2022-11-14T21:39:28.022Z,4.40
2022-11-14T21:42:18.359Z,4.40
2022-11-14T21:45:07.204Z,4.40
2022-11-14T21:47:54.565Z,4.40
2022-11-14T21:50:42.848Z,4.50
2022-11-14T21:53:31.361Z,4.50
2022-11-14T21:56:23.029Z,4.50
2022-11-14T21:59:16.448Z,4.50
2022-11-14T22:02:21.266Z,4.60
2022-11-14T22:05:09.128Z,4.50
2022-11-14T22:07:56.071Z,4.50
2022-11-14T22:10:43.069Z,4.50
2022-11-14T22:13:32.734Z,4.50
2022-11-14T22:16:20.802Z,4.50
2022-11-14T22:19:07.885Z,4.50
2022-11-14T22:21:55.373Z,4.50
2022-11-14T22:24:42.819Z,4.60
2022-11-14T22:27:29.769Z,4.50
2022-11-14T22:30:18.534Z,4.50
2022-11-14T22:33:05.894Z,4.50
2022-11-14T22:35:53.560Z,4.60
2022-11-14T22:38:41.198Z,4.60
2022-11-14T22:41:32.989Z,4.60
2022-11-14T22:44:20.933Z,4.60
2022-11-14T22:47:09.504Z,4.60
2022-11-14T22:49:56.764Z,4.60
2022-11-14T22:52:43.636Z,4.60
2022-11-14T22:55:30.651Z,4.60
2022-11-14T22:58:17.826Z,4.60
2022-11-14T23:01:12.523Z,4.60
2022-11-14T23:04:03.183Z,4.60
2022-11-14T23:06:50.796Z,4.60
2022-11-14T23:09:37.812Z,4.70
2022-11-14T23:12:25.049Z,4.70
2022-11-14T23:15:12.187Z,4.70
2022-11-14T23:18:00.056Z,4.70
2022-11-14T23:20:48.516Z,4.80
2022-11-14T23:23:35.858Z,4.70
2022-11-14T23:26:23.206Z,4.70
2022-11-14T23:29:15.541Z,4.70
2022-11-14T23:32:02.909Z,4.80
2022-11-14T23:34:50.017Z,4.70
2022-11-14T23:37:38.574Z,4.70
2022-11-14T23:40:25.916Z,4.70
2022-11-14T23:43:12.965Z,4.70
2022-11-14T23:46:00.250Z,4.70
2022-11-14T23:48:47.423Z,4.70
2022-11-14T23:51:34.320Z,4.70
2022-11-14T23:54:22.644Z,4.70
2022-11-14T23:57:09.927Z,4.70
2022-11-14T23:59:57.038Z,4.70
